Time;durP1;ratioP1;P1;durP2;ratioP2;P2;SDS_P1;SDS_P2;PMS_P1;PMS_P2;Temp;Humidity;BMP_temperature;BMP_pressure;BME280_temperature;BME280_humidity;BME280_pressure;Samples;Min_cycle;Max_cycle;Signal;HPM_P1;HPM_P2
2022/05/12 00:01:37;;;;;;;13.02;3.35;;;;;;;16.28;69.64;101266.03;5027317;28;20039;-54
2022/05/12 00:04:05;;;;;;;10.60;2.72;;;;;;;16.24;69.73;101263.06;5054268;28;20095;-52
2022/05/12 00:06:32;;;;;;;10.63;3.17;;;;;;;16.22;69.58;101273.53;5070504;28;20036;-50
2022/05/12 00:09:00;;;;;;;11.02;3.22;;;;;;;16.15;69.10;101265.66;5074137;28;20116;-50
2022/05/12 00:11:30;;;;;;;8.27;2.63;;;;;;;16.05;68.30;101268.53;5056876;28;20514;-51
2022/05/12 00:13:57;;;;;;;8.50;2.90;;;;;;;16.01;68.08;101277.66;5037801;28;20055;-51
2022/05/12 00:16:25;;;;;;;8.13;2.95;;;;;;;16.02;68.17;101274.63;5063264;28;20127;-51
2022/05/12 00:18:53;;;;;;;7.82;2.75;;;;;;;16.07;68.25;101277.31;5074825;28;20394;-53
2022/05/12 00:21:20;;;;;;;13.23;3.00;;;;;;;16.10;68.08;101281.41;5062822;28;20048;-51
2022/05/12 00:23:56;;;;;;;8.90;2.70;;;;;;;16.11;68.03;101288.50;5037703;28;20120;-50
2022/05/12 00:26:25;;;;;;;11.57;3.35;;;;;;;16.12;68.48;101285.47;5049211;28;20037;-51
2022/05/12 00:28:53;;;;;;;12.20;3.08;;;;;;;16.11;68.19;101294.81;5047029;28;20108;-50
2022/05/12 00:31:21;;;;;;;10.23;3.20;;;;;;;16.10;67.67;101301.44;5053758;28;20037;-50
2022/05/12 00:33:49;;;;;;;10.35;2.72;;;;;;;16.08;67.33;101298.16;5061899;28;20032;-51
2022/05/12 00:36:17;;;;;;;10.45;3.08;;;;;;;16.05;67.34;101289.72;5058891;28;20041;-53
2022/05/12 00:38:44;;;;;;;10.23;2.92;;;;;;;16.05;67.62;101296.00;5053068;28;20033;-50
2022/05/12 00:41:13;;;;;;;6.85;2.58;;;;;;;16.05;66.88;101307.00;5053567;28;20053;-50
2022/05/12 00:43:50;;;;;;;10.15;2.88;;;;;;;16.02;66.76;101312.25;5046957;28;20041;-49
2022/05/12 00:46:21;;;;;;;8.23;3.05;;;;;;;15.96;66.98;101306.00;5056762;28;20397;-48
2022/05/12 00:48:52;;;;;;;9.40;2.78;;;;;;;15.93;66.89;101321.16;5032606;28;20385;-52
2022/05/12 00:51:27;;;;;;;8.38;2.78;;;;;;;15.94;66.53;101319.22;5032493;28;20038;-52
2022/05/12 00:53:58;;;;;;;5.53;2.30;;;;;;;15.94;66.32;101316.47;5057140;28;20040;-50
2022/05/12 00:56:25;;;;;;;10.10;2.72;;;;;;;15.91;66.44;101312.38;5049832;28;20037;-50
2022/05/12 00:58:59;;;;;;;7.72;2.40;;;;;;;15.91;66.00;101323.38;5054557;28;20049;-48
2022/05/12 01:01:27;;;;;;;7.25;2.45;;;;;;;15.86;66.03;101319.88;5053555;28;20399;-53
2022/05/12 01:04:15;;;;;;;6.68;2.42;;;;;;;15.84;66.13;101316.59;5042474;28;20515;-51
2022/05/12 01:07:02;;;;;;;9.43;2.67;;;;;;;15.81;66.49;101326.25;5027342;28;20049;-47
2022/05/12 01:09:48;;;;;;;8.00;2.50;;;;;;;15.78;66.54;101326.84;5037041;28;20057;-49
2022/05/12 01:12:15;;;;;;;7.30;2.53;;;;;;;15.82;66.22;101324.31;5035605;28;20049;-51
2022/05/12 01:14:43;;;;;;;8.52;2.55;;;;;;;15.84;66.19;101327.59;5054060;28;20036;-49
2022/05/12 01:17:11;;;;;;;10.02;2.90;;;;;;;15.83;66.18;101331.47;5052694;28;20148;-52
2022/05/12 01:19:41;;;;;;;9.23;2.78;;;;;;;15.80;66.45;101341.06;5053002;28;20041;-48
2022/05/12 01:22:41;;;;;;;8.88;2.70;;;;;;;15.78;66.84;101343.31;5055265;28;20043;-49
2022/05/12 01:25:11;;;;;;;7.03;2.22;;;;;;;15.76;66.71;101338.09;5050121;28;20045;-52
2022/05/12 01:27:42;;;;;;;7.18;2.70;;;;;;;15.74;67.18;101350.50;5053972;28;20072;-51
2022/05/12 01:30:12;;;;;;;9.68;3.15;;;;;;;15.72;67.92;101342.53;5062342;28;20033;-50
2022/05/12 01:32:40;;;;;;;8.40;3.05;;;;;;;15.71;68.31;101362.88;5065189;28;20487;-50
2022/05/12 01:35:07;;;;;;;7.78;2.85;;;;;;;15.71;68.62;101362.88;5052954;28;20041;-50
2022/05/12 01:37:43;;;;;;;9.60;2.92;;;;;;;15.67;68.59;101359.03;5053721;28;20045;-49
2022/05/12 01:40:13;;;;;;;10.50;3.28;;;;;;;15.62;69.44;101359.09;5054214;28;20051;-53
2022/05/12 01:42:41;;;;;;;11.68;3.10;;;;;;;15.60;69.50;101365.97;5052725;28;20128;-49
2022/05/12 01:45:10;;;;;;;6.95;2.40;;;;;;;15.59;69.78;101370.66;5034883;28;20041;-50
2022/05/12 01:47:41;;;;;;;9.70;2.53;;;;;;;15.58;69.76;101374.50;5055600;28;20495;-50
2022/05/12 01:50:09;;;;;;;7.25;2.60;;;;;;;15.59;69.40;101384.41;5072711;28;20040;-51
2022/05/12 01:52:39;;;;;;;8.02;2.95;;;;;;;15.57;69.64;101372.88;5053462;28;20503;-54
2022/05/12 01:55:07;;;;;;;9.32;3.33;;;;;;;15.54;69.42;101373.47;5046943;28;20049;-49
2022/05/12 01:57:35;;;;;;;8.85;2.42;;;;;;;15.50;69.81;101380.63;5053540;28;20509;-50
2022/05/12 02:00:04;;;;;;;8.65;2.60;;;;;;;15.50;69.72;101378.69;5069928;28;20415;-50
2022/05/12 02:02:37;;;;;;;8.35;2.63;;;;;;;15.49;69.65;101385.31;5050825;28;20091;-51
2022/05/12 02:05:09;;;;;;;7.13;2.35;;;;;;;15.48;69.58;101382.84;5057476;28;20048;-49
2022/05/12 02:07:40;;;;;;;8.07;3.00;;;;;;;15.48;68.89;101386.38;5056847;28;20438;-49
2022/05/12 02:10:11;;;;;;;7.32;2.45;;;;;;;15.48;69.08;101396.56;5051136;28;20044;-49
2022/05/12 02:12:39;;;;;;;7.07;2.45;;;;;;;15.44;69.04;101400.97;5019050;28;20049;-51
2022/05/12 02:15:07;;;;;;;6.53;2.70;;;;;;;15.41;69.22;101405.13;5036236;28;20120;-49
2022/05/12 02:17:35;;;;;;;7.97;2.85;;;;;;;15.38;68.82;101410.38;5059520;28;20048;-49
2022/05/12 02:20:04;;;;;;;9.15;2.55;;;;;;;15.37;68.87;101401.31;5074553;28;20052;-49
2022/05/12 02:22:32;;;;;;;8.90;2.67;;;;;;;15.39;68.72;101401.03;5058359;28;20448;-49
2022/05/12 02:24:59;;;;;;;6.78;2.33;;;;;;;15.39;68.91;101407.31;5056084;28;20064;-49
2022/05/12 02:27:27;;;;;;;7.80;2.08;;;;;;;15.40;68.22;101411.72;5061797;28;20044;-50
2022/05/12 02:29:54;;;;;;;7.88;2.50;;;;;;;15.39;68.64;101425.75;5056556;28;20040;-50
2022/05/12 02:32:22;;;;;;;6.32;2.20;;;;;;;15.37;68.35;101411.47;5063703;28;20491;-49
2022/05/12 02:34:50;;;;;;;9.50;2.45;;;;;;;15.37;68.16;101416.97;5055906;28;20047;-50
2022/05/12 02:37:17;;;;;;;4.05;2.00;;;;;;;15.36;68.21;101426.31;5065315;28;20044;-49
2022/05/12 02:39:45;;;;;;;6.65;2.17;;;;;;;15.33;68.08;101430.44;5071895;28;20068;-49
2022/05/12 02:42:12;;;;;;;5.30;2.30;;;;;;;15.30;68.05;101434.59;5052573;28;20037;-51
2022/05/12 02:44:40;;;;;;;6.75;2.08;;;;;;;15.27;68.18;101426.94;5035643;28;20034;-52
2022/05/12 02:47:08;;;;;;;5.10;1.92;;;;;;;15.27;68.19;101440.66;5050984;28;20116;-49
2022/05/12 02:49:36;;;;;;;6.85;2.35;;;;;;;15.26;67.79;101444.50;5075678;28;20056;-52
2022/05/12 02:52:06;;;;;;;5.22;2.35;;;;;;;15.25;67.98;101442.88;5073694;28;20055;-52
2022/05/12 02:54:35;;;;;;;7.63;2.22;;;;;;;15.27;68.00;101451.66;5055277;28;20052;-48
2022/05/12 02:57:03;;;;;;;6.15;1.90;;;;;;;15.27;67.99;101446.16;5065587;28;20048;-51
2022/05/12 02:59:31;;;;;;;5.90;2.03;;;;;;;15.26;68.14;101454.66;5057576;28;20049;-52
2022/05/12 03:01:59;;;;;;;4.13;2.00;;;;;;;15.24;67.88;101448.63;5036958;28;20568;-50
2022/05/12 03:04:27;;;;;;;6.57;2.60;;;;;;;15.24;67.88;101446.69;5065283;28;20515;-50
2022/05/12 03:06:55;;;;;;;8.80;2.75;;;;;;;15.21;67.94;101441.78;5051157;28;20041;-51
2022/05/12 03:09:23;;;;;;;5.97;2.28;;;;;;;15.20;67.99;101456.63;5056831;28;20037;-52
2022/05/12 03:11:50;;;;;;;8.23;2.83;;;;;;;15.22;68.04;101459.06;5056117;28;20041;-54
2022/05/12 03:14:18;;;;;;;8.68;2.28;;;;;;;15.22;68.08;101457.13;5055052;28;20051;-51
2022/05/12 03:16:46;;;;;;;7.85;2.80;;;;;;;15.19;67.99;101460.47;5042856;28;20508;-49
2022/05/12 03:19:14;;;;;;;7.43;2.40;;;;;;;15.20;68.04;101456.63;5057755;28;20132;-49
2022/05/12 03:21:42;;;;;;;6.55;2.25;;;;;;;15.21;67.90;101463.75;5055687;28;20048;-49
2022/05/12 03:24:09;;;;;;;10.07;2.83;;;;;;;15.17;67.98;101468.16;5052065;28;20044;-53
2022/05/12 03:26:37;;;;;;;9.48;2.80;;;;;;;15.17;68.03;101468.16;5069050;28;20040;-50
2022/05/12 03:29:04;;;;;;;7.30;2.72;;;;;;;15.15;67.92;101472.28;5054740;28;20118;-53
2022/05/12 03:31:32;;;;;;;10.32;2.95;;;;;;;15.12;68.20;101459.94;5054825;28;20048;-49
2022/05/12 03:34:00;;;;;;;12.65;3.30;;;;;;;15.11;68.18;101464.63;5055308;28;20510;-49
2022/05/12 03:36:28;;;;;;;11.00;3.20;;;;;;;15.13;68.30;101469.84;5055615;28;20037;-49
2022/05/12 03:38:55;;;;;;;10.68;3.10;;;;;;;15.09;68.10;101472.31;5056950;28;20051;-51
2022/05/12 03:41:23;;;;;;;12.73;3.28;;;;;;;15.07;68.16;101474.53;5073032;28;20043;-50
2022/05/12 03:46:36;;;;;;;;;;;;;;;15.06;68.58;101483.06;5062261;28;20514;-48
2022/05/12 03:49:04;;;;;;;13.05;3.22;;;;;;;15.03;68.67;101489.94;5074563;28;19920;-52
2022/05/12 03:51:32;;;;;;;8.13;2.80;;;;;;;15.03;68.93;101500.06;5072488;28;20041;-50
2022/05/12 03:53:59;;;;;;;11.35;3.13;;;;;;;15.00;69.02;101501.44;5067106;28;20053;-49
2022/05/12 03:56:27;;;;;;;8.80;3.03;;;;;;;14.96;69.08;101505.03;5037841;28;20037;-50
2022/05/12 03:59:02;;;;;;;10.95;3.63;;;;;;;14.95;69.48;101508.88;5054187;28;20041;-50
2022/05/12 04:01:29;;;;;;;11.00;3.25;;;;;;;14.94;69.17;101512.75;5042829;28;20045;-50
2022/05/12 04:03:57;;;;;;;8.80;3.03;;;;;;;14.92;69.50;101515.75;5040171;28;20174;-54
2022/05/12 04:06:25;;;;;;;12.75;3.45;;;;;;;14.92;69.59;101513.03;5060895;28;20060;-50
2022/05/12 04:08:52;;;;;;;8.57;3.30;;;;;;;14.91;69.77;101520.44;5072962;28;20057;-52
2022/05/12 04:11:20;;;;;;;11.00;3.38;;;;;;;14.90;69.68;101524.25;5066036;28;20041;-50
2022/05/12 04:13:48;;;;;;;11.70;3.47;;;;;;;14.91;70.00;101536.91;5052890;28;20103;-50
2022/05/12 04:16:15;;;;;;;13.63;3.67;;;;;;;14.90;70.12;101517.97;5054437;28;20033;-49
2022/05/12 04:18:43;;;;;;;15.82;4.43;;;;;;;14.87;70.32;101524.84;5034031;28;20041;-49
2022/05/12 04:21:11;;;;;;;14.07;4.55;;;;;;;14.85;70.58;101538.00;5024337;28;20052;-48
2022/05/12 04:23:38;;;;;;;12.65;4.25;;;;;;;14.88;70.65;101542.91;5014107;28;20046;-46
2022/05/12 04:26:06;;;;;;;12.70;4.55;;;;;;;14.87;70.29;101541.28;5028807;28;20056;-47
2022/05/12 04:28:34;;;;;;;13.15;4.70;;;;;;;14.87;70.20;101537.72;5052014;28;20045;-46
2022/05/12 04:31:02;;;;;;;10.98;3.80;;;;;;;14.86;70.40;101533.34;5047616;28;20507;-48
2022/05/12 04:36:16;;;;;;;;;;;;;;;14.86;70.26;101547.91;5034964;28;20045;-49
2022/05/12 04:38:43;;;;;;;13.48;5.00;;;;;;;14.85;70.82;101551.72;5033463;28;19921;-48
2022/05/12 04:41:11;;;;;;;16.25;5.07;;;;;;;14.83;70.83;101559.41;5033575;28;20119;-51
2022/05/12 04:43:39;;;;;;;11.70;4.15;;;;;;;14.82;71.15;101559.69;5016148;28;20049;-52
2022/05/12 04:46:06;;;;;;;12.85;4.90;;;;;;;14.81;71.34;101564.34;5042548;28;20041;-50
2022/05/12 04:48:36;;;;;;;14.50;5.25;;;;;;;14.83;71.64;101561.34;5053068;28;20053;-51
2022/05/12 04:51:03;;;;;;;14.27;5.10;;;;;;;14.82;71.51;101559.69;5044259;28;20085;-51
2022/05/12 04:53:31;;;;;;;13.13;4.95;;;;;;;14.83;71.87;101564.91;5034305;28;20053;-50
2022/05/12 04:55:59;;;;;;;14.30;5.55;;;;;;;14.83;72.10;101567.63;5038006;28;20087;-52
2022/05/12 04:58:26;;;;;;;15.73;5.70;;;;;;;14.83;72.23;101572.31;5033237;28;20049;-50
2022/05/12 05:00:54;;;;;;;17.05;5.70;;;;;;;14.82;72.63;101571.50;5032541;28;20069;-49
2022/05/12 05:03:22;;;;;;;17.48;5.78;;;;;;;14.84;72.85;101573.94;5015675;28;20041;-47
2022/05/12 05:05:51;;;;;;;15.80;6.13;;;;;;;14.84;73.28;101579.44;5033067;28;20038;-49
2022/05/12 05:08:20;;;;;;;18.63;6.57;;;;;;;14.84;73.57;101580.28;5034058;28;20041;-47
2022/05/12 05:10:49;;;;;;;17.25;6.50;;;;;;;14.85;73.80;101584.66;5015689;28;20041;-48
2022/05/12 05:13:18;;;;;;;17.33;6.90;;;;;;;14.86;74.17;101589.06;5015542;28;20057;-47
2022/05/12 05:15:47;;;;;;;19.08;7.55;;;;;;;14.86;74.30;101589.06;5016861;28;20053;-51
2022/05/12 05:18:17;;;;;;;17.30;7.60;;;;;;;14.87;74.46;101598.91;5027839;28;20072;-48
2022/05/12 05:20:46;;;;;;;25.40;9.27;;;;;;;14.83;75.28;101603.31;5033027;28;20055;-52
2022/05/12 05:23:21;;;;;;;20.27;7.55;;;;;;;14.84;75.46;101607.72;5039183;28;20037;-55
2022/05/12 05:25:51;;;;;;;17.20;7.53;;;;;;;14.85;75.89;101609.34;5036382;28;20512;-55
2022/05/12 05:28:18;;;;;;;21.08;9.43;;;;;;;14.84;76.47;101617.84;5032987;28;20132;-53
2022/05/12 05:30:46;;;;;;;18.42;7.93;;;;;;;14.82;77.03;101615.38;5038787;28;20112;-49
2022/05/12 05:33:14;;;;;;;20.88;8.35;;;;;;;14.80;77.30;101614.03;5038185;28;20045;-50
2022/05/12 05:35:42;;;;;;;25.95;9.73;;;;;;;14.80;77.83;101617.59;5033871;28;20048;-48
2022/05/12 05:38:11;;;;;;;20.00;9.43;;;;;;;14.84;77.73;101612.34;5035824;28;20428;-50
2022/05/12 05:40:38;;;;;;;24.70;10.20;;;;;;;14.81;78.06;101635.69;5037217;28;20148;-53
2022/05/12 05:43:13;;;;;;;22.90;9.93;;;;;;;14.82;78.42;101637.34;5028820;28;20048;-55
2022/05/12 05:45:41;;;;;;;21.13;9.75;;;;;;;14.80;78.39;101644.19;5040279;28;20037;-55
2022/05/12 05:48:09;;;;;;;24.85;10.05;;;;;;;14.89;78.03;101643.38;5055611;28;20099;-54
2022/05/12 05:53:35;;;;;;;20.52;9.48;;;;;;;14.86;78.95;101656.81;5022275;28;20262;-51
2022/05/12 05:56:06;;;;;;;23.98;11.30;;;;;;;14.83;79.05;101654.63;5034596;28;20053;-53
2022/05/12 05:58:34;;;;;;;22.98;9.55;;;;;;;14.81;79.50;101663.13;5033363;28;20504;-55
2022/05/12 06:01:02;;;;;;;24.05;10.70;;;;;;;14.77;79.58;101667.53;5033270;28;20468;-52
2022/05/12 06:03:29;;;;;;;20.45;9.77;;;;;;;14.78;79.61;101674.66;5033346;28;20049;-53
2022/05/12 06:05:57;;;;;;;22.40;10.40;;;;;;;14.76;79.91;101676.03;5049255;28;20063;-54
2022/05/12 06:08:25;;;;;;;18.67;8.85;;;;;;;14.77;80.02;101678.50;5051550;28;20045;-51
2022/05/12 06:11:03;;;;;;;15.80;8.32;;;;;;;14.83;80.12;101680.13;5051738;28;20042;-54
2022/05/12 06:13:35;;;;;;;21.27;9.98;;;;;;;14.87;79.92;101688.66;5050503;28;20130;-52
2022/05/12 06:16:05;;;;;;;17.73;8.43;;;;;;;14.90;79.84;101690.81;5035119;28;20034;-50
2022/05/12 06:18:34;;;;;;;25.30;11.35;;;;;;;14.97;79.61;101696.84;5051751;28;20045;-50
2022/05/12 06:21:04;;;;;;;14.57;6.95;;;;;;;14.99;79.22;101699.34;5040922;28;20415;-50
2022/05/12 06:23:32;;;;;;;15.98;7.25;;;;;;;15.01;79.24;101699.84;5071534;28;20047;-57
2022/05/12 06:26:00;;;;;;;20.45;9.68;;;;;;;15.07;78.72;101705.06;5054046;28;20152;-52
2022/05/12 06:28:28;;;;;;;20.63;9.85;;;;;;;15.03;79.04;101712.25;5054056;28;20052;-50
2022/05/12 06:30:55;;;;;;;21.63;10.82;;;;;;;14.95;79.56;101706.47;5035376;28;20159;-50
2022/05/12 06:33:23;;;;;;;21.85;11.02;;;;;;;14.85;80.01;101710.03;5070734;28;20045;-50
2022/05/12 06:35:52;;;;;;;22.65;10.57;;;;;;;14.85;79.87;101715.53;5057446;28;20051;-48
2022/05/12 06:38:20;;;;;;;20.17;9.70;;;;;;;14.80;80.09;101716.34;5035752;28;20076;-51
2022/05/12 06:40:48;;;;;;;17.30;8.05;;;;;;;14.78;80.19;101712.25;5072264;28;20453;-51
2022/05/12 06:43:15;;;;;;;13.98;7.60;;;;;;;14.85;79.75;101707.28;5072302;28;20059;-49
2022/05/12 06:45:43;;;;;;;19.90;9.52;;;;;;;14.86;78.56;101715.28;5044616;28;20032;-48
2022/05/12 06:48:11;;;;;;;16.98;8.57;;;;;;;14.80;78.96;101716.34;5056938;28;20045;-47
2022/05/12 06:50:39;;;;;;;20.13;8.93;;;;;;;14.84;79.37;101728.44;5051544;28;20041;-49
2022/05/12 06:53:07;;;;;;;21.33;9.57;;;;;;;14.94;79.28;101724.88;5037901;28;20123;-49
2022/05/12 06:55:34;;;;;;;19.52;9.27;;;;;;;14.97;77.89;101734.47;5060854;28;20044;-48
2022/05/12 06:58:02;;;;;;;22.35;9.52;;;;;;;14.87;77.76;101738.84;5057786;28;20044;-50
2022/05/12 07:00:30;;;;;;;18.20;8.68;;;;;;;14.83;77.18;101737.75;5072361;28;20036;-49
2022/05/12 07:02:57;;;;;;;24.40;9.73;;;;;;;14.81;76.91;101728.97;5056007;28;20040;-48
2022/05/12 07:05:26;;;;;;;18.95;8.70;;;;;;;14.80;76.29;101743.78;5037833;28;20045;-49
2022/05/12 07:07:54;;;;;;;20.23;9.00;;;;;;;14.81;76.12;101739.94;5035867;28;20045;-50
2022/05/12 07:10:24;;;;;;;20.50;8.55;;;;;;;14.83;76.68;101742.41;5052038;28;20056;-53
2022/05/12 07:12:52;;;;;;;14.98;7.97;;;;;;;14.91;76.59;101739.09;5022141;28;20503;-53
2022/05/12 07:15:25;;;;;;;20.58;8.63;;;;;;;14.95;75.83;101753.13;5042830;28;20044;-48
2022/05/12 07:17:54;;;;;;;19.50;8.25;;;;;;;14.99;75.74;101746.00;5028287;28;20057;-54
2022/05/12 07:28:42;;;;;;;14.02;6.60;;;;;;;15.32;73.14;101753.66;5033249;28;20045;-50
2022/05/12 07:31:10;;;;;;;16.33;7.78;;;;;;;15.39;72.27;101766.25;5037006;28;20052;-49
2022/05/12 07:33:40;;;;;;;22.02;7.47;;;;;;;15.32;71.42;101766.53;5052412;28;20094;-52
2022/05/12 07:36:23;;;;;;;17.10;7.88;;;;;;;15.27;71.78;101770.13;5037296;28;20388;-51
2022/05/12 07:38:50;;;;;;;19.95;8.38;;;;;;;15.33;71.46;101766.25;5038758;28;20052;-51
2022/05/12 07:41:19;;;;;;;17.25;7.72;;;;;;;15.42;71.73;101765.72;5055228;28;20458;-52
2022/05/12 07:43:47;;;;;;;16.92;7.95;;;;;;;15.38;70.92;101765.44;5037224;28;20406;-50
2022/05/12 07:46:21;;;;;;;18.42;8.85;;;;;;;15.30;71.80;101763.25;5036795;28;20037;-48
2022/05/12 07:48:50;;;;;;;19.52;6.22;;;;;;;15.44;75.03;101763.50;5037643;28;20120;-52
2022/05/12 07:51:18;;;;;;;17.27;7.53;;;;;;;15.48;70.94;101764.59;5055372;28;20037;-49
2022/05/12 07:53:47;;;;;;;14.45;6.95;;;;;;;15.57;70.51;101773.91;5061670;28;20049;-52
2022/05/12 07:56:21;;;;;;;25.52;8.95;;;;;;;15.50;70.30;101778.88;5072395;28;20044;-50
2022/05/12 07:58:49;;;;;;;19.75;8.75;;;;;;;15.40;70.94;101774.22;5062515;28;20070;-54
2022/05/12 08:01:17;;;;;;;19.70;8.27;;;;;;;15.36;71.12;101783.28;5038293;28;20044;-50
2022/05/12 08:03:46;;;;;;;17.40;7.70;;;;;;;15.32;70.05;101781.09;5036654;28;20048;-51
2022/05/12 08:06:15;;;;;;;17.60;6.80;;;;;;;15.40;69.92;101787.13;5054156;28;20048;-50
2022/05/12 08:08:44;;;;;;;15.75;6.38;;;;;;;15.42;67.65;101782.19;5042592;28;20075;-50
2022/05/12 08:11:12;;;;;;;16.27;6.45;;;;;;;15.51;66.05;101786.84;5072425;28;20045;-52
2022/05/12 08:13:47;;;;;;;15.63;6.38;;;;;;;15.51;67.10;101786.84;5073463;28;20075;-54
2022/05/12 08:16:18;;;;;;;18.20;6.05;;;;;;;15.47;67.80;101791.25;5071802;28;20044;-50
2022/05/12 08:18:49;;;;;;;14.13;6.10;;;;;;;15.51;66.79;101791.50;5056092;28;20050;-51
2022/05/12 08:21:19;;;;;;;17.23;5.80;;;;;;;15.50;65.10;101800.84;5054691;28;20101;-50
2022/05/12 08:23:47;;;;;;;17.67;6.22;;;;;;;15.57;65.59;101801.38;5073385;28;20047;-51
2022/05/12 08:26:15;;;;;;;18.88;6.65;;;;;;;15.68;64.51;101792.03;5073874;28;20037;-50
2022/05/12 08:28:44;;;;;;;17.60;6.07;;;;;;;15.83;63.98;101793.13;5070348;28;20036;-50
2022/05/12 08:31:12;;;;;;;13.05;5.50;;;;;;;15.87;64.00;101792.25;5071913;28;20044;-50
2022/05/12 08:33:40;;;;;;;15.27;6.13;;;;;;;15.91;63.56;101800.78;5039961;28;20067;-51
2022/05/12 08:36:09;;;;;;;14.65;4.75;;;;;;;15.85;59.68;101804.63;5053988;28;20123;-50
2022/05/12 08:38:40;;;;;;;11.82;4.82;;;;;;;15.74;58.72;101798.34;5053604;28;20411;-51
2022/05/12 08:41:31;;;;;;;12.65;4.55;;;;;;;15.67;58.52;101795.84;5051290;28;20048;-51
2022/05/12 08:44:03;;;;;;;10.48;4.40;;;;;;;15.62;58.85;101790.38;5071447;28;20078;-50
2022/05/12 08:46:42;;;;;;;13.35;4.82;;;;;;;15.61;58.36;101791.50;5055950;28;20534;-49
2022/05/12 08:49:39;;;;;;;12.93;4.18;;;;;;;15.59;58.37;101798.38;5055081;28;20043;-50
2022/05/12 08:52:19;;;;;;;12.27;4.18;;;;;;;15.67;58.82;101795.03;5071274;28;20060;-50
2022/05/12 08:54:51;;;;;;;14.10;4.15;;;;;;;15.79;57.65;101792.03;5056590;28;20049;-50
2022/05/12 08:57:58;;;;;;;12.82;4.90;;;;;;;15.86;57.04;101803.53;5036423;28;20480;-53
2022/05/12 09:00:27;;;;;;;11.48;4.03;;;;;;;15.92;55.62;101796.91;5050422;28;20489;-48
2022/05/12 09:03:23;;;;;;;11.48;4.45;;;;;;;15.95;55.63;101796.38;5036758;28;20045;-50
2022/05/12 09:06:06;;;;;;;11.95;4.20;;;;;;;16.06;56.91;101795.22;5015477;28;20042;-51
2022/05/12 09:09:05;;;;;;;11.60;3.58;;;;;;;16.13;56.65;101795.72;5054402;28;20037;-49
2022/05/12 09:12:12;;;;;;;11.40;3.92;;;;;;;16.26;55.42;101812.72;5052959;28;20132;-50
2022/05/12 09:15:26;;;;;;;9.98;3.33;;;;;;;16.22;54.93;101811.66;5030240;28;20076;-50
2022/05/12 09:18:02;;;;;;;9.65;3.42;;;;;;;16.22;53.24;101819.91;5003472;28;20077;-50
2022/05/12 09:20:31;;;;;;;;;;;;;;;16.26;53.80;101818.22;5011319;28;20060;-51
2022/05/12 09:22:59;;;;;;;9.02;3.35;;;;;;;16.32;53.22;101817.09;5033581;28;19927;-52
2022/05/12 09:25:37;;;;;;;10.55;3.40;;;;;;;16.35;53.05;101809.09;5022743;28;20047;-53
2022/05/12 09:28:24;;;;;;;10.05;3.30;;;;;;;16.37;51.90;101820.66;5017389;28;20377;-53
2022/05/12 09:30:52;;;;;;;8.95;3.47;;;;;;;16.27;51.79;101814.38;5042868;28;20045;-50
2022/05/12 09:33:31;;;;;;;10.13;3.13;;;;;;;16.27;51.85;101811.63;5012121;28;20041;-51
2022/05/12 09:36:04;;;;;;;9.07;3.33;;;;;;;16.26;51.46;101820.97;5053584;28;20411;-49
2022/05/12 09:38:44;;;;;;;8.35;3.13;;;;;;;16.29;51.62;101812.19;5052939;28;20071;-50
2022/05/12 09:41:38;;;;;;;9.88;3.45;;;;;;;16.30;51.52;101808.31;5047872;28;20041;-49
2022/05/12 09:44:27;;;;;;;13.90;4.53;;;;;;;16.52;58.00;101810.66;5051063;28;20120;-50
2022/05/12 09:47:02;;;;;;;10.93;4.28;;;;;;;16.70;54.50;101806.44;5052662;28;20543;-49
2022/05/12 09:49:38;;;;;;;8.38;3.42;;;;;;;16.70;51.51;101809.19;5033813;28;20503;-51
2022/05/12 09:52:24;;;;;;;9.60;3.13;;;;;;;16.55;49.82;101805.44;5040899;28;20049;-49
2022/05/12 09:55:17;;;;;;;8.80;3.05;;;;;;;16.74;53.75;101796.50;5031005;28;20065;-51
2022/05/12 09:57:46;;;;;;;14.27;6.20;;;;;;;17.02;60.79;101792.19;5031803;28;20050;-51
2022/05/12 10:00:26;;;;;;;17.80;5.53;;;;;;;17.04;52.07;101795.47;5044608;28;20124;-50
2022/05/12 10:09:12;;;;;;;10.32;3.40;;;;;;;17.21;54.70;101797.81;5034098;28;20045;-49
2022/05/12 10:12:10;;;;;;;10.75;4.55;;;;;;;17.20;48.76;101796.19;5036617;28;20068;-53
2022/05/12 10:14:52;;;;;;;8.85;3.13;;;;;;;17.12;48.41;101797.59;5018226;28;20041;-52
2022/05/12 10:17:23;;;;;;;8.68;3.33;;;;;;;17.16;47.04;101797.88;5060743;28;20051;-51
2022/05/12 10:19:52;;;;;;;9.18;3.25;;;;;;;17.22;48.65;101789.28;5050963;28;20072;-51
2022/05/12 10:22:38;;;;;;;5.35;2.33;;;;;;;17.21;49.95;101790.38;5049531;28;20068;-52
2022/05/12 10:25:23;;;;;;;9.05;2.70;;;;;;;17.23;45.76;101801.09;5038413;28;20048;-51
2022/05/12 10:27:57;;;;;;;13.05;2.95;;;;;;;17.20;45.93;101801.69;5038540;28;20127;-51
2022/05/12 10:30:34;;;;;;;6.10;2.58;;;;;;;17.24;46.33;101800.00;5060944;28;20051;-51
2022/05/12 10:33:14;;;;;;;8.02;2.47;;;;;;;17.31;46.15;101800.47;5076414;28;20438;-47
2022/05/12 10:35:45;;;;;;;7.80;2.78;;;;;;;17.38;45.43;101811.16;4326593;28;10000368;-53
2022/05/12 10:38:33;;;;;;;8.43;2.78;;;;;;;17.36;44.72;101803.19;5033518;28;20045;-49
2022/05/12 10:41:17;;;;;;;7.97;2.83;;;;;;;17.22;44.03;101803.06;5050679;28;20075;-51
2022/05/12 10:44:09;;;;;;;6.10;2.17;;;;;;;17.03;43.92;101800.19;5035285;28;20431;-52
2022/05/12 10:46:55;;;;;;;9.32;2.30;;;;;;;16.95;43.86;101809.03;5052942;28;20170;-51
2022/05/12 10:49:32;;;;;;;7.10;2.40;;;;;;;16.95;43.54;101809.03;5052086;28;20480;-49
2022/05/12 10:52:28;;;;;;;9.07;2.95;;;;;;;17.04;43.62;101796.31;5049344;28;20076;-49
2022/05/12 10:55:11;;;;;;;7.28;2.67;;;;;;;17.20;43.83;101793.44;5031611;28;20128;-50
2022/05/12 10:58:04;;;;;;;7.72;2.60;;;;;;;17.30;44.55;101798.84;5032551;28;20054;-52
2022/05/12 11:01:05;;;;;;;8.05;3.20;;;;;;;17.41;46.03;101783.88;5052065;28;20037;-53
2022/05/12 11:03:45;;;;;;;7.93;3.00;;;;;;;17.45;45.50;101795.13;5034262;28;20045;-52
2022/05/12 11:06:18;;;;;;;10.02;3.13;;;;;;;17.39;44.62;101797.13;5034059;28;20045;-51
2022/05/12 11:08:51;;;;;;;10.02;3.13;;;;;;;17.26;44.11;101797.78;5016056;28;20056;-51
2022/05/12 11:11:23;;;;;;;8.50;2.45;;;;;;;17.19;43.10;101792.59;5022324;28;20041;-51
2022/05/12 11:13:57;;;;;;;9.18;3.22;;;;;;;17.14;41.88;101792.63;5014075;28;20069;-52
2022/05/12 11:16:55;;;;;;;7.72;2.40;;;;;;;17.16;42.02;101786.84;5032000;28;20061;-51
2022/05/12 11:19:25;;;;;;;7.63;2.80;;;;;;;17.25;42.89;101774.09;4979140;28;20058;-49
2022/05/12 11:22:30;;;;;;;8.52;2.67;;;;;;;17.37;43.46;101785.56;5031940;28;20060;-51
2022/05/12 11:25:05;;;;;;;8.48;2.83;;;;;;;17.40;43.65;101786.91;5051830;28;20051;-52
2022/05/12 11:31:13;;;;;;;8.52;2.30;;;;;;;17.41;41.45;101772.84;5039052;28;20041;-51
2022/05/12 11:33:44;;;;;;;10.20;2.80;;;;;;;17.48;41.07;101775.25;5033214;28;20045;-52
2022/05/12 11:36:12;;;;;;;7.63;2.60;;;;;;;17.58;41.28;101785.34;5029623;28;20622;-52
2022/05/12 11:38:42;;;;;;;8.55;2.40;;;;;;;17.58;41.65;101757.78;5013943;28;20048;-53
2022/05/12 11:41:32;;;;;;;7.05;2.55;;;;;;;17.65;42.35;101758.25;5046875;28;20055;-54
2022/05/12 11:44:26;;;;;;;5.63;2.30;;;;;;;17.76;43.01;101765.28;5051235;28;20120;-53
2022/05/12 11:47:27;;;;;;;7.88;2.22;;;;;;;17.86;43.77;101767.97;5051266;28;20136;-52
2022/05/12 11:50:27;;;;;;;7.00;2.72;;;;;;;17.87;42.31;101771.53;5035403;28;20045;-53
2022/05/12 11:53:13;;;;;;;8.27;2.53;;;;;;;17.83;40.80;101764.97;5050380;28;20037;-51
2022/05/12 11:56:13;;;;;;;6.93;2.50;;;;;;;17.82;39.75;101761.41;5036935;28;20053;-51
2022/05/12 11:58:44;;;;;;;5.13;2.20;;;;;;;17.87;39.42;101760.50;5021506;28;20106;-50
2022/05/12 12:01:14;;;;;;;8.00;2.30;;;;;;;17.97;39.23;101767.84;5066528;28;20044;-51
2022/05/12 12:03:56;;;;;;;7.05;2.30;;;;;;;17.98;39.77;101761.22;5074114;28;20054;-53
2022/05/12 12:06:36;;;;;;;5.97;2.60;;;;;;;17.98;40.96;101761.22;5056507;28;20052;-53
2022/05/12 12:09:25;;;;;;;8.73;2.90;;;;;;;17.90;41.09;101761.88;5052312;28;20057;-54
2022/05/12 12:11:53;;;;;;;8.63;2.40;;;;;;;17.85;41.47;101766.31;5045777;28;20033;-54
2022/05/12 12:14:47;;;;;;;10.13;2.80;;;;;;;17.80;40.64;101763.63;5036420;28;20068;-50